Time;durP1;ratioP1;P1;durP2;ratioP2;P2;SDS_P1;SDS_P2;PMS_P1;PMS_P2;Temp;Humidity;BMP_temperature;BMP_pressure;BME280_temperature;BME280_humidity;BME280_pressure;Samples;Min_cycle;Max_cycle;Signal;HPM_P1;HPM_P2
2022/01/30 00:00:36;;;;;;;15.07;3.00;;;6.80;99.90;;;;;;7179248;32;20117;-61
2022/01/30 00:04:37;;;;;;;13.65;2.37;;;6.80;99.90;;;;;;7171951;32;20113;-60
2022/01/30 00:08:39;;;;;;;18.50;3.00;;;6.70;99.90;;;;;;7173158;33;21003;-60
2022/01/30 00:16:43;;;;;;;19.23;3.60;;;6.60;99.90;;;;;;7174985;32;20140;-59
2022/01/30 00:20:57;;;;;;;23.62;4.18;;;6.50;99.90;;;;;;7174069;33;20175;-58
2022/01/30 00:25:04;;;;;;;16.67;3.62;;;6.50;99.90;;;;;;7167827;32;20556;-59
2022/01/30 00:29:07;;;;;;;22.10;3.42;;;6.40;99.90;;;;;;7176354;33;20692;-58
2022/01/30 00:33:09;;;;;;;25.67;2.75;;;6.50;99.90;;;;;;7177855;33;20310;-61
2022/01/30 00:37:11;;;;;;;18.70;2.70;;;6.50;99.90;;;;;;7165154;33;20493;-61
2022/01/30 00:41:13;;;;;;;18.12;3.90;;;6.40;99.90;;;;;;7167324;33;20196;-61
2022/01/30 00:45:15;;;;;;;18.85;3.67;;;6.50;99.90;;;;;;7164543;33;20141;-61
2022/01/30 00:49:17;;;;;;;19.02;2.67;;;6.50;99.90;;;;;;7164466;33;20226;-62
2022/01/30 00:53:19;;;;;;;26.02;3.87;;;6.40;99.90;;;;;;7171390;33;20223;-61
2022/01/30 00:57:22;;;;;;;17.75;3.87;;;6.40;99.90;;;;;;7177927;33;20159;-61
2022/01/30 01:01:24;;;;;;;20.12;2.87;;;6.30;99.90;;;;;;7163390;33;20117;-61
2022/01/30 01:05:27;;;;;;;21.37;3.00;;;6.30;99.90;;;;;;7170537;33;20261;-61
2022/01/30 01:09:36;;;;;;;18.60;2.92;;;6.30;99.90;;;;;;7158436;33;20207;-61
2022/01/30 01:13:58;;;;;;;21.42;3.42;;;6.30;99.90;;;;;;7158791;33;20301;-61
2022/01/30 01:26:42;;;;;;;28.90;3.85;;;6.20;99.90;;;;;;7179414;33;20500;-61
2022/01/30 01:30:45;;;;;;;20.33;3.72;;;6.20;99.90;;;;;;7172897;32;20706;-59
2022/01/30 01:34:47;;;;;;;20.90;3.78;;;6.20;99.90;;;;;;7174612;33;20113;-59
2022/01/30 01:38:49;;;;;;;23.10;3.30;;;6.20;99.90;;;;;;7177938;33;20143;-59
2022/01/30 01:42:51;;;;;;;24.20;3.35;;;6.30;99.90;;;;;;7173134;33;20519;-59
2022/01/30 01:46:52;;;;;;;21.45;3.45;;;6.30;99.90;;;;;;7166084;33;20131;-59
2022/01/30 01:51:04;;;;;;;18.45;2.58;;;6.20;99.90;;;;;;7173281;33;20870;-59
2022/01/30 01:55:06;;;;;;;28.52;3.55;;;6.00;99.90;;;;;;7172511;33;20113;-59
2022/01/30 01:59:07;;;;;;;17.90;3.67;;;5.90;99.90;;;;;;7172075;33;20192;-59
2022/01/30 02:03:10;;;;;;;25.58;3.70;;;5.80;99.90;;;;;;7172731;33;20570;-59
2022/01/30 02:11:31;;;;;;;27.60;3.70;;;5.70;99.90;;;;;;7175350;33;20132;-59
2022/01/30 02:23:55;;;;;;;26.23;3.75;;;5.60;99.90;;;;;;7176499;33;20481;-60
2022/01/30 02:24:35;;;;;;;26.30;3.40;;;5.50;99.90;;;;;;7176374;33;20140;-59
2022/01/30 02:28:36;;;;;;;23.20;3.60;;;5.40;99.90;;;;;;7178234;33;20113;-59
2022/01/30 02:32:38;;;;;;;21.55;3.55;;;5.40;99.90;;;;;;7171620;33;20216;-59
2022/01/30 02:36:46;;;;;;;24.17;3.60;;;5.40;99.90;;;;;;7170537;33;20135;-59
2022/01/30 02:40:49;;;;;;;22.73;3.08;;;5.40;99.90;;;;;;7173737;33;20175;-59
2022/01/30 02:44:56;;;;;;;25.25;4.05;;;5.40;99.90;;;;;;7157173;33;20109;-59
2022/01/30 02:49:11;;;;;;;26.55;3.62;;;5.40;99.90;;;;;;7180632;32;20271;-59
2022/01/30 02:53:13;;;;;;;32.25;4.53;;;5.50;99.90;;;;;;7180192;33;20710;-59
2022/01/30 02:57:14;;;;;;;30.08;3.55;;;5.50;99.90;;;;;;7175764;33;20131;-59
2022/01/30 03:01:16;;;;;;;19.92;2.92;;;5.50;99.90;;;;;;7165745;33;20197;-59
2022/01/30 03:05:18;;;;;;;28.23;4.20;;;5.50;99.90;;;;;;7156906;33;20126;-59
2022/01/30 03:09:20;;;;;;;28.77;3.45;;;5.60;99.90;;;;;;7158458;33;20204;-59
2022/01/30 03:13:21;;;;;;;23.02;3.58;;;5.50;99.90;;;;;;7154968;33;20214;-59
2022/01/30 03:17:23;;;;;;;29.95;4.03;;;5.60;99.90;;;;;;7152117;33;20145;-59
2022/01/30 03:21:26;;;;;;;26.85;4.12;;;5.60;99.90;;;;;;7144355;33;20173;-61
2022/01/30 03:25:30;;;;;;;23.95;3.42;;;5.60;99.90;;;;;;7148318;33;20192;-60
2022/01/30 03:29:32;;;;;;;28.05;3.55;;;5.70;99.90;;;;;;7155541;33;20109;-59
2022/01/30 03:33:34;;;;;;;25.52;4.45;;;5.70;99.90;;;;;;7150013;33;20128;-59
2022/01/30 03:37:36;;;;;;;27.10;4.18;;;5.70;99.90;;;;;;7156655;33;20833;-59
2022/01/30 03:41:38;;;;;;;20.52;3.17;;;5.80;99.90;;;;;;7159641;33;20117;-58
2022/01/30 03:45:40;;;;;;;28.55;4.12;;;5.70;99.90;;;;;;7164619;33;20386;-59
2022/01/30 03:49:41;;;;;;;23.35;3.70;;;5.70;99.90;;;;;;7163944;33;20110;-59
2022/01/30 03:53:44;;;;;;;19.30;3.90;;;5.70;99.90;;;;;;7138561;33;20153;-59
2022/01/30 03:57:45;;;;;;;26.83;3.08;;;5.60;99.90;;;;;;7147792;33;20189;-59
2022/01/30 04:01:47;;;;;;;17.92;2.87;;;5.60;99.90;;;;;;7166581;32;20110;-59
2022/01/30 04:05:49;;;;;;;21.27;2.70;;;5.60;99.90;;;;;;7159181;33;20586;-58
2022/01/30 04:09:51;;;;;;;21.42;3.40;;;5.50;99.90;;;;;;7180540;33;20132;-59
2022/01/30 04:13:53;;;;;;;20.27;3.37;;;5.40;99.90;;;;;;7163173;33;20126;-59
2022/01/30 04:17:55;;;;;;;20.12;3.60;;;5.20;99.90;;;;;;7164182;33;20132;-59
2022/01/30 04:21:57;;;;;;;25.42;3.40;;;5.10;99.90;;;;;;7175726;33;20687;-59
2022/01/30 04:25:58;;;;;;;29.50;4.05;;;5.00;99.90;;;;;;7172057;33;20131;-59
2022/01/30 04:30:01;;;;;;;25.90;3.30;;;4.80;99.90;;;;;;7169736;33;20200;-59
2022/01/30 04:34:03;;;;;;;23.48;3.70;;;4.80;99.90;;;;;;7162237;33;20215;-60
2022/01/30 04:51:55;;;;;;;23.87;3.00;;;4.70;99.90;;;;;;7163597;33;20105;-59
2022/01/30 04:52:05;;;;;;;22.15;2.65;;;4.60;99.90;;;;;;7178620;33;20345;-59
2022/01/30 05:03:56;;;;;;;20.85;3.28;;;4.50;99.90;;;;;;7171063;33;20715;-59
2022/01/30 05:08:01;;;;;;;25.70;3.28;;;4.40;99.90;;;;;;7174008;33;20101;-59
2022/01/30 05:12:03;;;;;;;18.62;2.87;;;4.40;99.90;;;;;;7174438;32;20110;-59
2022/01/30 05:16:05;;;;;;;27.42;3.42;;;4.50;99.90;;;;;;7177219;33;20728;-59
2022/01/30 05:20:08;;;;;;;23.52;2.60;;;4.50;99.90;;;;;;7176553;33;20132;-59
2022/01/30 05:24:10;;;;;;;18.15;3.30;;;4.70;99.90;;;;;;7162746;33;20215;-59
2022/01/30 05:28:13;;;;;;;15.90;3.30;;;4.80;99.90;;;;;;7169969;33;20121;-59
2022/01/30 05:32:15;;;;;;;21.42;3.03;;;4.80;99.90;;;;;;7162414;33;20114;-60
2022/01/30 05:36:20;;;;;;;18.58;3.28;;;4.80;99.90;;;;;;7169338;33;20106;-59
2022/01/30 05:40:23;;;;;;;18.15;3.17;;;4.80;99.90;;;;;;7169345;33;21852;-59
2022/01/30 05:44:38;;;;;;;17.55;2.58;;;4.80;99.90;;;;;;7170620;33;20585;-59
2022/01/30 05:48:40;;;;;;;23.40;3.08;;;4.60;99.90;;;;;;7163217;33;20201;-59
2022/01/30 05:52:42;;;;;;;21.85;2.65;;;4.50;99.90;;;;;;7151549;33;20140;-59
2022/01/30 05:56:44;;;;;;;22.77;4.25;;;4.50;99.90;;;;;;7173563;33;20148;-59
2022/01/30 06:00:46;;;;;;;15.95;3.17;;;4.60;99.90;;;;;;7170275;33;20118;-59
2022/01/30 06:04:47;;;;;;;25.83;3.42;;;4.50;99.90;;;;;;7169009;33;20132;-59
2022/01/30 06:09:00;;;;;;;15.32;2.33;;;4.50;99.90;;;;;;7162909;33;20117;-59
2022/01/30 06:13:02;;;;;;;17.55;2.70;;;4.50;99.90;;;;;;7169520;33;20643;-58
2022/01/30 06:17:04;;;;;;;28.02;3.00;;;4.60;99.90;;;;;;7175225;33;20110;-59
2022/01/30 06:21:05;;;;;;;27.58;3.20;;;4.60;99.90;;;;;;7178632;33;20109;-60
2022/01/30 06:25:08;;;;;;;17.65;2.80;;;4.60;99.90;;;;;;7177213;33;20808;-59
2022/01/30 06:29:10;;;;;;;20.67;3.00;;;4.60;99.90;;;;;;7179631;33;20856;-60
2022/01/30 06:33:12;;;;;;;15.77;2.70;;;4.60;99.90;;;;;;7178041;33;20768;-59
2022/01/30 06:37:15;;;;;;;20.65;2.70;;;4.60;99.90;;;;;;7177451;33;20114;-59
2022/01/30 06:41:16;;;;;;;17.90;2.28;;;4.60;99.90;;;;;;7172584;33;20105;-60
2022/01/30 06:45:18;;;;;;;16.65;2.70;;;4.70;99.90;;;;;;7179896;32;20109;-63
2022/01/30 06:49:20;;;;;;;25.05;3.03;;;4.70;99.90;;;;;;7186802;32;20636;-61
2022/01/30 06:53:24;;;;;;;22.70;2.65;;;4.70;99.90;;;;;;7184463;33;20127;-61
2022/01/30 06:57:26;;;;;;;19.58;2.47;;;4.80;99.90;;;;;;7183426;32;20566;-61
2022/01/30 07:01:27;;;;;;;17.95;2.28;;;4.80;99.90;;;;;;7179469;32;20211;-61
2022/01/30 07:05:29;;;;;;;16.75;2.10;;;4.70;99.90;;;;;;7181698;33;20565;-59
2022/01/30 07:09:32;;;;;;;22.25;2.33;;;4.80;99.90;;;;;;7173344;33;20311;-60
2022/01/30 07:13:33;;;;;;;16.12;2.12;;;4.80;99.90;;;;;;7181485;33;20140;-60
2022/01/30 07:17:35;;;;;;;19.02;2.58;;;4.80;99.90;;;;;;7180140;33;20101;-59
2022/01/30 07:21:37;;;;;;;15.50;2.78;;;4.80;99.90;;;;;;7164375;33;20133;-60
2022/01/30 07:25:40;;;;;;;14.35;2.28;;;4.80;99.90;;;;;;7182498;33;20534;-59
2022/01/30 07:29:41;;;;;;;17.70;2.78;;;4.80;99.90;;;;;;7164133;33;20149;-59
2022/01/30 07:33:43;;;;;;;17.67;2.30;;;4.80;99.90;;;;;;7175202;33;20110;-59
2022/01/30 07:37:45;;;;;;;10.63;2.10;;;4.80;99.90;;;;;;7173220;32;20094;-59
2022/01/30 07:41:47;;;;;;;17.58;2.70;;;4.80;99.90;;;;;;7180772;33;20110;-59
2022/01/30 07:45:49;;;;;;;18.75;3.08;;;4.80;99.90;;;;;;7180393;33;20768;-59
2022/01/30 07:49:54;;;;;;;21.17;2.67;;;4.80;99.90;;;;;;7180511;33;20199;-58
2022/01/30 07:53:56;;;;;;;20.52;3.03;;;4.80;99.90;;;;;;7180152;33;20193;-59
2022/01/30 07:57:57;;;;;;;12.48;2.55;;;4.90;99.90;;;;;;7169489;33;20114;-59
2022/01/30 08:01:59;;;;;;;16.55;1.85;;;5.00;99.90;;;;;;7171864;33;20113;-59
2022/01/30 08:06:01;;;;;;;18.77;2.28;;;5.00;99.90;;;;;;7134708;33;20216;-58
2022/01/30 08:10:03;;;;;;;20.52;3.00;;;5.00;99.90;;;;;;7156689;33;20133;-59
2022/01/30 08:14:05;;;;;;;21.35;2.47;;;4.90;99.90;;;;;;7149258;33;20165;-59
2022/01/30 08:18:06;;;;;;;19.85;2.33;;;4.90;99.90;;;;;;7143609;33;20448;-58
2022/01/30 08:22:08;;;;;;;22.17;2.97;;;4.90;99.90;;;;;;7154322;33;20109;-58
2022/01/30 08:26:10;;;;;;;14.87;2.65;;;4.90;99.90;;;;;;7153192;33;20206;-58
2022/01/30 08:30:12;;;;;;;15.57;2.22;;;5.10;99.90;;;;;;7151187;33;20641;-58
2022/01/30 08:34:13;;;;;;;19.45;2.40;;;5.20;99.90;;;;;;7145488;33;20217;-58
2022/01/30 08:38:18;;;;;;;20.27;2.37;;;5.20;99.90;;;;;;7144761;33;20811;-58
2022/01/30 08:42:19;;;;;;;17.05;2.65;;;5.30;99.90;;;;;;7147438;33;20174;-59
2022/01/30 08:46:21;;;;;;;20.45;3.97;;;5.30;99.90;;;;;;7150091;33;20189;-59
2022/01/30 08:50:24;;;;;;;18.12;2.40;;;5.40;99.90;;;;;;7150395;33;20284;-60
2022/01/30 08:54:26;;;;;;;16.50;3.03;;;5.40;99.90;;;;;;7147697;33;20106;-59
2022/01/30 08:58:29;;;;;;;19.40;2.85;;;5.50;99.90;;;;;;7144597;33;20558;-59
2022/01/30 09:02:31;;;;;;;20.12;2.53;;;5.60;99.90;;;;;;7169990;32;20542;-59
2022/01/30 09:06:36;;;;;;;16.10;2.60;;;5.60;99.90;;;;;;7174249;32;20806;-60
2022/01/30 09:10:39;;;;;;;18.52;2.97;;;5.70;99.90;;;;;;7178482;32;20203;-59
2022/01/30 09:14:42;;;;;;;15.88;2.60;;;5.90;99.90;;;;;;7167210;32;20205;-59
2022/01/30 09:18:44;;;;;;;17.12;2.83;;;5.90;99.90;;;;;;7176467;32;20121;-59
2022/01/30 09:22:46;;;;;;;17.95;2.60;;;6.00;99.90;;;;;;7177750;32;20517;-59
2022/01/30 09:26:48;;;;;;;20.17;3.03;;;6.00;99.90;;;;;;7171423;32;20105;-59
2022/01/30 09:30:50;;;;;;;19.60;3.20;;;6.20;99.90;;;;;;7176556;33;20553;-59
2022/01/30 09:34:52;;;;;;;15.90;2.70;;;6.20;99.90;;;;;;7159027;33;20243;-60
2022/01/30 09:38:53;;;;;;;21.50;2.65;;;6.10;99.90;;;;;;7177759;33;20105;-59
2022/01/30 09:42:57;;;;;;;24.52;3.08;;;6.20;99.90;;;;;;7177570;33;20135;-59
2022/01/30 09:46:58;;;;;;;21.20;2.60;;;6.20;99.90;;;;;;7177212;33;20130;-59
2022/01/30 09:51:02;;;;;;;17.20;2.80;;;6.30;99.90;;;;;;7174764;33;20800;-58
2022/01/30 09:55:11;;;;;;;13.82;2.75;;;6.20;99.90;;;;;;7179170;32;20132;-59
2022/01/30 09:59:12;;;;;;;17.58;2.55;;;6.40;99.90;;;;;;7182190;32;20937;-59
2022/01/30 10:03:26;;;;;;;27.62;4.03;;;6.60;99.90;;;;;;7180406;32;20109;-59
2022/01/30 10:07:49;;;;;;;15.82;2.47;;;6.60;99.90;;;;;;7180113;32;20244;-59
2022/01/30 10:12:00;;;;;;;17.92;2.83;;;6.50;99.90;;;;;;7181529;32;20478;-59
2022/01/30 10:16:04;;;;;;;18.20;2.78;;;6.50;99.90;;;;;;7179898;32;20667;-59
2022/01/30 10:20:25;;;;;;;18.45;2.85;;;7.20;99.90;;;;;;7180076;32;20113;-59
2022/01/30 10:24:27;;;;;;;22.50;3.87;;;7.30;99.90;;;;;;7176600;32;20111;-60
2022/01/30 10:28:31;;;;;;;18.70;2.97;;;7.10;99.90;;;;;;7177106;32;20204;-59
2022/01/30 10:32:34;;;;;;;19.05;3.25;;;6.90;99.90;;;;;;7178830;32;20371;-59
2022/01/30 10:36:37;;;;;;;17.58;3.05;;;6.80;99.90;;;;;;7180495;32;20129;-59
2022/01/30 10:41:19;;;;;;;29.17;3.45;;;6.70;99.90;;;;;;7182845;32;20123;-59
2022/01/30 10:45:31;;;;;;;19.55;3.37;;;6.70;99.90;;;;;;7179284;32;20109;-60
2022/01/30 10:49:44;;;;;;;25.25;3.87;;;6.70;99.90;;;;;;7175167;32;20585;-58
2022/01/30 10:53:49;;;;;;;23.77;3.25;;;6.80;99.90;;;;;;7177596;32;20118;-59
2022/01/30 10:57:51;;;;;;;28.12;4.07;;;7.00;99.90;;;;;;7173435;32;20220;-59
2022/01/30 11:01:53;;;;;;;29.40;4.00;;;7.00;99.90;;;;;;7174151;32;20208;-59
2022/01/30 11:05:58;;;;;;;32.67;4.18;;;7.00;99.90;;;;;;7179928;32;20113;-59
2022/01/30 11:10:08;;;;;;;22.70;3.75;;;7.00;99.90;;;;;;7177925;33;20235;-59
2022/01/30 11:18:14;;;;;;;25.30;4.35;;;6.90;99.90;;;;;;7174363;33;20219;-59
2022/01/30 11:22:21;;;;;;;21.65;4.10;;;6.90;99.90;;;;;;7176765;33;20545;-59
2022/01/30 11:26:23;;;;;;;;;;;7.00;99.90;;;;;;7167843;33;20196;-59
2022/01/30 11:30:25;;;;;;;35.97;4.32;;;7.10;99.90;;;;;;7173885;33;20092;-59
2022/01/30 11:34:28;;;;;;;25.80;4.57;;;7.20;99.90;;;;;;7174115;33;20114;-59
2022/01/30 11:38:29;;;;;;;24.48;4.37;;;7.20;99.90;;;;;;7172839;33;20108;-58
2022/01/30 11:42:40;;;;;;;26.65;4.70;;;7.20;99.90;;;;;;7177373;32;20133;-59
2022/01/30 11:46:41;;;;;;;32.88;4.82;;;7.30;99.90;;;;;;7171242;33;20133;-58
2022/01/30 11:50:43;;;;;;;30.25;4.20;;;7.40;99.90;;;;;;7174302;32;20374;-59
2022/01/30 11:55:01;;;;;;;27.23;4.97;;;7.30;99.90;;;;;;7170911;32;20223;-59
2022/01/30 11:59:06;;;;;;;23.42;3.75;;;7.30;99.90;;;;;;7171432;32;20133;-58
2022/01/30 12:03:27;;;;;;;27.27;4.20;;;7.10;99.90;;;;;;7173481;32;20266;-58
2022/01/30 12:07:32;;;;;;;22.37;3.97;;;7.10;99.90;;;;;;7170512;32;20596;-59
2022/01/30 12:11:34;;;;;;;31.25;4.18;;;7.20;99.90;;;;;;7172631;33;20144;-60
2022/01/30 12:15:46;;;;;;;24.10;4.50;;;7.40;99.90;;;;;;7174257;32;20132;-59
2022/01/30 12:19:48;;;;;;;29.00;4.32;;;7.60;99.90;;;;;;7176170;33;20109;-58
2022/01/30 12:23:49;;;;;;;30.42;4.97;;;7.70;99.90;;;;;;7177707;33;20110;-59
2022/01/30 12:27:56;;;;;;;22.08;4.10;;;7.90;99.90;;;;;;7174246;33;20529;-59
2022/01/30 12:32:20;;;;;;;28.42;4.50;;;7.80;99.90;;;;;;7173213;33;20204;-59
2022/01/30 12:39:16;;;;;;;25.00;4.20;;;7.80;99.90;;;;;;7378094;31;20103;-59
2022/01/30 12:43:26;;;;;;;39.30;5.62;;;7.70;99.90;;;;;;7367098;32;20474;-59
2022/01/30 12:47:28;;;;;;;27.42;3.50;;;7.70;99.90;;;;;;7370339;32;20111;-59
2022/01/30 12:51:29;;;;;;;33.03;5.25;;;7.60;99.90;;;;;;7369385;32;20217;-60
2022/01/30 12:55:32;;;;;;;31.40;3.80;;;7.70;99.90;;;;;;7368945;32;20607;-59
2022/01/30 12:59:33;;;;;;;25.30;3.85;;;7.50;99.90;;;;;;7366853;32;20149;-59
2022/01/30 13:03:35;;;;;;;23.95;4.18;;;7.50;99.90;;;;;;7359270;32;20488;-60
2022/01/30 13:07:38;;;;;;;24.55;2.92;;;7.20;99.90;;;;;;7366265;32;20119;-60
2022/01/30 13:11:39;;;;;;;18.15;3.70;;;7.00;99.90;;;;;;7366792;32;20134;-59
2022/01/30 13:15:55;;;;;;;26.30;5.85;;;6.90;99.90;;;;;;7367952;32;20122;-59
2022/01/30 13:19:56;;;;;;;28.62;3.80;;;6.80;99.90;;;;;;7361166;32;20174;-59
2022/01/30 13:24:00;;;;;;;23.20;3.92;;;7.00;99.90;;;;;;7363738;32;20129;-59
2022/01/30 13:28:02;;;;;;;30.95;4.00;;;7.10;99.90;;;;;;7363824;32;20107;-60
2022/01/30 13:32:09;;;;;;;21.98;4.47;;;7.10;99.90;;;;;;7364438;32;20540;-60
2022/01/30 13:36:24;;;;;;;21.17;3.75;;;7.20;99.90;;;;;;7367791;32;20502;-59
2022/01/30 13:40:44;;;;;;;23.75;3.15;;;7.10;99.90;;;;;;7378415;32;20104;-60
2022/01/30 13:45:04;;;;;;;26.25;4.30;;;6.90;99.90;;;;;;7377161;32;20183;-59
2022/01/30 13:49:06;;;;;;;22.58;3.50;;;6.80;99.90;;;;;;7356806;32;20115;-60
2022/01/30 13:53:19;;;;;;;24.75;4.30;;;6.70;99.90;;;;;;7355258;32;20136;-61
2022/01/30 13:57:35;;;;;;;27.17;5.05;;;6.80;99.90;;;;;;7338349;32;20673;-60
2022/01/30 14:01:37;;;;;;;34.28;4.22;;;6.70;99.90;;;;;;7344162;32;20138;-60
2022/01/30 14:05:41;;;;;;;32.30;4.32;;;6.70;99.90;;;;;;7344380;32;20111;-60
2022/01/30 14:09:48;;;;;;;28.15;3.87;;;6.60;99.90;;;;;;7343236;32;20111;-60
2022/01/30 14:13:54;;;;;;;22.52;4.03;;;6.70;99.90;;;;;;7344216;32;20475;-60
2022/01/30 14:18:06;;;;;;;23.92;4.07;;;6.70;99.90;;;;;;7351888;32;20096;-60
2022/01/30 14:22:22;;;;;;;26.27;4.10;;;6.90;99.90;;;;;;7344881;32;20116;-60
2022/01/30 14:26:29;;;;;;;32.25;4.78;;;7.10;99.90;;;;;;7350102;32;20134;-60
2022/01/30 14:30:38;;;;;;;21.60;3.42;;;7.30;99.90;;;;;;7346968;32;20943;-60
2022/01/30 14:34:41;;;;;;;27.37;3.53;;;7.20;99.90;;;;;;7347886;32;20527;-60
2022/01/30 14:38:45;;;;;;;30.98;6.07;;;7.20;99.90;;;;;;7346636;32;20147;-61
2022/01/30 14:42:47;;;;;;;27.17;4.93;;;7.00;99.90;;;;;;7350740;32;20116;-60
2022/01/30 14:46:49;;;;;;;23.27;3.62;;;6.90;99.90;;;;;;7349455;32;20107;-60
2022/01/30 14:50:51;;;;;;;32.20;4.12;;;6.80;99.90;;;;;;7354377;32;20198;-60
2022/01/30 14:54:53;;;;;;;26.77;4.55;;;6.90;99.90;;;;;;7350420;32;20133;-60
2022/01/30 14:58:54;;;;;;;23.50;4.22;;;6.90;99.90;;;;;;7342461;32;20186;-59
2022/01/30 15:02:57;;;;;;;31.23;5.12;;;6.70;99.90;;;;;;7347389;32;20126;-60
2022/01/30 15:06:59;;;;;;;25.30;4.85;;;6.70;99.90;;;;;;7352934;32;20167;-59
2022/01/30 15:11:01;;;;;;;27.02;5.30;;;6.60;99.90;;;;;;7344930;32;20111;-58
2022/01/30 15:15:07;;;;;;;27.10;7.80;;;6.50;99.90;;;;;;7351913;32;20193;-58
2022/01/30 15:19:10;;;;;;;23.65;4.00;;;6.50;99.90;;;;;;7345650;32;20230;-59
2022/01/30 15:23:12;;;;;;;26.90;5.28;;;6.50;99.90;;;;;;7345393;32;20104;-59
2022/01/30 15:27:21;;;;;;;29.73;5.20;;;6.50;99.90;;;;;;7351672;32;20560;-59
2022/01/30 15:31:22;;;;;;;25.35;5.32;;;6.60;99.90;;;;;;7352468;32;20145;-59
2022/01/30 15:35:24;;;;;;;23.40;4.12;;;6.50;99.90;;;;;;7347904;32;20285;-59
2022/01/30 15:39:26;;;;;;;26.00;5.57;;;6.50;99.90;;;;;;7348721;32;20122;-60
2022/01/30 15:43:43;;;;;;;34.30;10.13;;;6.50;99.90;;;;;;7349700;32;20750;-59
2022/01/30 15:52:05;;;;;;;21.45;3.45;;;6.50;99.90;;;;;;7351155;32;20202;-60
2022/01/30 15:56:07;;;;;;;17.80;4.10;;;6.40;99.90;;;;;;7354246;32;20111;-59
2022/01/30 16:00:11;;;;;;;29.17;4.32;;;6.30;99.90;;;;;;7350296;32;20141;-58
2022/01/30 16:04:12;;;;;;;21.48;3.87;;;6.30;99.90;;;;;;7349407;32;20107;-59
2022/01/30 16:08:17;;;;;;;21.25;3.85;;;6.40;99.90;;;;;;7345457;32;20145;-59
2022/01/30 16:16:36;;;;;;;19.17;4.00;;;6.10;99.90;;;;;;7346945;32;20107;-58
2022/01/30 16:20:39;;;;;;;20.70;3.45;;;5.90;99.90;;;;;;7346335;32;20168;-59
2022/01/30 16:24:41;;;;;;;20.92;5.55;;;5.60;99.90;;;;;;7347846;32;20123;-58
2022/01/30 16:28:43;;;;;;;27.83;7.62;;;5.50;99.90;;;;;;7343037;32;20107;-58
2022/01/30 16:32:45;;;;;;;27.62;7.62;;;5.40;99.90;;;;;;7338498;32;20209;-59
2022/01/30 16:36:47;;;;;;;20.12;6.43;;;5.30;99.90;;;;;;7341506;32;20112;-59
2022/01/30 16:40:49;;;;;;;27.60;7.40;;;5.20;99.90;;;;;;7343493;32;20124;-59
2022/01/30 16:44:54;;;;;;;24.55;5.97;;;5.10;99.90;;;;;;7344519;32;20574;-58
2022/01/30 16:48:57;;;;;;;19.62;5.87;;;5.00;99.90;;;;;;7348536;32;20661;-58
2022/01/30 16:52:59;;;;;;;27.80;6.28;;;4.90;99.90;;;;;;7345629;32;20122;-58
2022/01/30 16:57:01;;;;;;;25.55;5.28;;;4.70;99.90;;;;;;7348982;32;20103;-58
2022/01/30 17:01:03;;;;;;;26.65;4.93;;;4.60;99.90;;;;;;7348355;32;20594;-59
2022/01/30 17:05:06;;;;;;;23.85;5.57;;;4.40;99.90;;;;;;7347985;32;20317;-59
2022/01/30 17:13:28;;;;;;;25.70;5.65;;;4.20;99.90;;;;;;7345413;32;20146;-60
2022/01/30 17:17:30;;;;;;;23.77;5.60;;;4.10;99.90;;;;;;7347224;32;20100;-59
2022/01/30 17:21:32;;;;;;;21.10;4.65;;;3.90;99.90;;;;;;7348337;32;20148;-59
2022/01/30 17:25:34;;;;;;;22.62;4.80;;;3.90;99.90;;;;;;7346838;32;20130;-59
2022/01/30 17:29:39;;;;;;;24.67;5.43;;;3.60;99.90;;;;;;7350716;32;20209;-59
2022/01/30 17:33:40;;;;;;;22.08;4.07;;;3.40;99.90;;;;;;7351791;32;20119;-59
2022/01/30 17:37:42;;;;;;;13.68;3.90;;;3.30;99.90;;;;;;7348770;32;20800;-62
2022/01/30 17:41:44;;;;;;;20.55;3.55;;;3.30;99.90;;;;;;7355924;32;20154;-60
2022/01/30 17:45:46;;;;;;;21.37;4.15;;;3.10;99.90;;;;;;7349765;32;20202;-59
2022/01/30 17:49:55;;;;;;;24.92;4.32;;;2.90;99.90;;;;;;7352657;32;20214;-60
2022/01/30 17:53:57;;;;;;;14.20;3.55;;;2.90;99.90;;;;;;7344821;32;20149;-59
2022/01/30 17:57:59;;;;;;;26.55;4.53;;;2.80;99.90;;;;;;7349377;32;20670;-58
2022/01/30 18:02:01;;;;;;;21.90;5.15;;;2.80;99.90;;;;;;7353019;32;20130;-58
2022/01/30 18:06:07;;;;;;;25.98;6.40;;;2.60;99.90;;;;;;7350097;32;20202;-58
2022/01/30 18:10:10;;;;;;;29.80;5.32;;;2.50;99.90;;;;;;7348488;32;20104;-59
2022/01/30 18:14:11;;;;;;;23.58;5.82;;;2.50;99.90;;;;;;7352062;32;20112;-61
2022/01/30 18:18:13;;;;;;;27.20;6.62;;;2.50;99.90;;;;;;7348201;32;20214;-60
2022/01/30 18:22:16;;;;;;;26.85;4.95;;;2.60;99.90;;;;;;7349304;32;20512;-59
2022/01/30 18:26:18;;;;;;;24.05;6.20;;;2.60;99.90;;;;;;7349274;32;20121;-58
2022/01/30 18:30:23;;;;;;;19.23;4.72;;;2.50;99.90;;;;;;7339265;32;20163;-59
2022/01/30 18:34:25;;;;;;;28.25;6.82;;;2.50;99.90;;;;;;7337863;32;20112;-59
2022/01/30 18:42:29;;;;;;;21.35;5.12;;;2.50;99.90;;;;;;7348063;32;20225;-60
2022/01/30 18:46:31;;;;;;;22.65;5.35;;;2.60;99.90;;;;;;7342545;32;20107;-60
2022/01/30 18:50:32;;;;;;;17.30;5.45;;;2.60;99.90;;;;;;7345945;32;20104;-59
2022/01/30 18:54:35;;;;;;;24.40;5.10;;;2.50;99.90;;;;;;7347839;32;20828;-58
2022/01/30 18:58:36;;;;;;;23.70;5.80;;;2.50;99.90;;;;;;7348847;32;20799;-59
2022/01/30 19:02:40;;;;;;;24.00;4.60;;;2.50;99.90;;;;;;7344530;32;20157;-58
2022/01/30 19:06:45;;;;;;;22.52;4.95;;;2.50;99.90;;;;;;7346041;32;20241;-57
2022/01/30 19:10:47;;;;;;;19.23;3.53;;;2.50;99.90;;;;;;7355264;32;20115;-57
2022/01/30 19:14:48;;;;;;;19.65;3.62;;;2.50;99.90;;;;;;7344375;32;20096;-60
2022/01/30 19:18:50;;;;;;;19.15;3.78;;;2.50;99.90;;;;;;7346717;32;20130;-59
2022/01/30 19:22:55;;;;;;;21.17;3.25;;;2.50;99.90;;;;;;7348399;32;20108;-59
2022/01/30 19:26:57;;;;;;;22.17;4.20;;;2.60;99.90;;;;;;7346324;32;20130;-61
2022/01/30 19:30:59;;;;;;;18.85;3.75;;;2.70;99.90;;;;;;7346401;32;20166;-60
2022/01/30 19:35:01;;;;;;;15.50;3.47;;;2.70;99.90;;;;;;7352366;32;20104;-59
2022/01/30 19:39:03;;;;;;;17.17;4.07;;;2.70;99.90;;;;;;7343937;32;20108;-60
2022/01/30 19:43:05;;;;;;;15.38;4.12;;;2.70;99.90;;;;;;7342512;32;20255;-59
2022/01/30 19:47:08;;;;;;;20.92;4.82;;;2.80;99.90;;;;;;7345249;32;20888;-59
2022/01/30 19:51:10;;;;;;;21.15;5.07;;;2.90;99.90;;;;;;7345255;32;20099;-59
2022/01/30 19:55:12;;;;;;;27.48;5.72;;;2.90;99.90;;;;;;7349150;32;20107;-59
2022/01/30 19:59:13;;;;;;;26.52;4.60;;;3.00;99.90;;;;;;7349300;32;20120;-59
2022/01/30 20:03:20;;;;;;;22.55;5.53;;;3.10;99.90;;;;;;7343490;32;20125;-60
2022/01/30 20:07:22;;;;;;;23.85;5.53;;;3.30;99.90;;;;;;7415352;26;20459;-68
2022/01/30 20:11:24;;;;;;;16.37;4.87;;;3.60;99.90;;;;;;7286079;32;20558;-69
2022/01/30 20:15:25;;;;;;;27.25;4.93;;;3.70;99.90;;;;;;7292102;32;20123;-69
2022/01/30 20:19:27;;;;;;;23.17;5.28;;;3.90;99.90;;;;;;7297121;32;20099;-70
2022/01/30 20:23:29;;;;;;;19.42;4.32;;;4.10;99.90;;;;;;7292772;32;20215;-72
2022/01/30 20:27:31;;;;;;;22.23;4.43;;;4.40;99.90;;;;;;7290791;32;20128;-68
2022/01/30 20:31:33;;;;;;;17.12;4.50;;;4.50;99.90;;;;;;7278506;32;20229;-69
2022/01/30 20:35:35;;;;;;;18.95;4.85;;;4.40;99.90;;;;;;7274218;32;20120;-71
2022/01/30 20:39:37;;;;;;;19.90;4.53;;;4.50;99.90;;;;;;7274444;32;20531;-68
2022/01/30 20:43:39;;;;;;;21.90;4.43;;;4.70;99.90;;;;;;7291134;32;20149;-71
2022/01/30 20:47:42;;;;;;;18.67;4.80;;;4.70;99.90;;;;;;7281756;32;20154;-69
2022/01/30 20:51:44;;;;;;;19.65;4.62;;;4.70;99.90;;;;;;7293804;32;20215;-72
2022/01/30 20:55:45;;;;;;;18.12;4.43;;;4.70;99.90;;;;;;7286435;32;20225;-70
2022/01/30 20:59:49;;;;;;;18.30;4.18;;;4.80;99.90;;;;;;7283075;32;20150;-71
2022/01/30 21:03:50;;;;;;;23.38;4.03;;;4.70;99.90;;;;;;7294824;32;20572;-71
2022/01/30 21:07:54;;;;;;;11.95;3.70;;;4.90;99.90;;;;;;7296882;32;20120;-70
2022/01/30 21:11:59;;;;;;;17.20;4.45;;;4.90;99.90;;;;;;7296344;32;20135;-70
2022/01/30 21:16:01;;;;;;;14.48;3.67;;;5.00;99.90;;;;;;7285098;32;20196;-69
2022/01/30 21:20:05;;;;;;;15.80;4.35;;;5.10;99.90;;;;;;7290844;32;20116;-73
2022/01/30 21:24:07;;;;;;;21.62;4.65;;;5.10;99.90;;;;;;7292392;32;20116;-69
2022/01/30 21:28:10;;;;;;;20.02;4.95;;;5.10;99.90;;;;;;7298577;32;20324;-70
2022/01/30 21:32:12;;;;;;;22.10;4.20;;;5.00;99.90;;;;;;7281994;32;20514;-69
2022/01/30 21:36:15;;;;;;;18.27;4.55;;;5.00;99.90;;;;;;7291081;32;20116;-70
2022/01/30 21:40:17;;;;;;;19.67;4.37;;;5.10;99.90;;;;;;7282397;32;20128;-69
2022/01/30 21:44:19;;;;;;;19.62;4.32;;;5.10;99.90;;;;;;7292971;32;20222;-73
2022/01/30 21:48:21;;;;;;;15.02;4.60;;;5.20;99.90;;;;;;7295376;32;20136;-70
2022/01/30 21:52:25;;;;;;;12.23;3.80;;;5.20;99.90;;;;;;7292947;32;20116;-69
2022/01/30 21:56:27;;;;;;;19.42;4.10;;;5.10;99.90;;;;;;7293954;32;20246;-71
2022/01/30 22:00:29;;;;;;;15.55;4.35;;;5.20;99.90;;;;;;7297213;32;20206;-69
2022/01/30 22:04:31;;;;;;;19.12;3.62;;;5.20;99.90;;;;;;7278603;32;20962;-69
2022/01/30 22:08:32;;;;;;;16.15;3.33;;;5.10;99.90;;;;;;7288765;32;20135;-69
2022/01/30 22:12:54;;;;;;;15.35;4.03;;;5.10;99.90;;;;;;7290071;32;20444;-67